logo
Rechercher aéroport 
image banner adimage banner adimage banner ad
image banner ad

OPSK - Sukkur/Begum Nusrat Bhutto Airport

Situé à Sukkur, Pakistan

ICAO - OPSK, IATA - SKZ

Données fournies par Airmate  

Information générale

Coordonnées: N27°43'19" E68°47'31"
Élévation : 196 feet MSL.
 
Voir autres Aéroports à Sindh

Données opérationnelles

Special qualification required
Heure actuelle UTC:
Heure actuelle locale:
Météo
METAR: OPSK 251700Z 00000KT 5000 HZ NSC 37/23 Q0998 NOSIG
TAF: TAF OPSK 251700Z 2518/2618 VRB03KT 3000 HZ NSC FM260500 31010G20KT 4000 HZ NSC
Voir NOTAMs / SUP AIP / TFR affectant cet aéroport [VIEW]
Fréquences de communication: [VIEW]

Pistes:

Identifiant RWYQFULongueur (ft)Largeur (ft)SurfaceLDA (ft)
14141°899998ASP
32321°899998ASP

Coordonnées de l'aéroport

Adresse: Sukkur Pakistan

Vue satellite de OPSK